Latest Coastal Weather Observations for Hobart Airport

IDT60701

Issued at 11:35 pm EST Thursday 31 July 2014 (issued every 10 minutes, with the page automatically refreshed every 10 minutes)

About coastal observations | Map of coastal stations | Coastal observations for TAS | Marine services | Other Formats
Station Details ID: 094008 Name: HOBART AIRPORT Lat: -42.83 Lon: 147.50 Height: 4.0 m
Data from the previous 72 hours. | See also: Recent months at Hobart Airport
Date/Time
EST
Temp

°C
Wind Pressure Rain
since 9am
mm
Weather Cloud Vis
km
Sea
Height
m
Swell
Dir
 
Speed
knots
Gust
knots
hPa Trend Height
m
Period
s
Dir
31/11:30pm 4.4 NNW 17 27 985.3 - 18.4 - Mostly clear 10 - - - -
31/11:00pm 5.3 NW 22 30 986.0 - 18.0 - Mostly clear 2 - - - -
31/10:30pm 5.9 NW 21 31 984.5 - 17.4 - Mostly clear 10 - - - -
31/10:00pm 6.1 NW 19 29 984.8 - 17.2 - Partly cloudy 10 - - - -
31/09:30pm 6.2 NW 20 27 984.2 - 17.0 - Partly cloudy 10 - - - -
31/09:00pm 6.3 NW 24 34 984.2 R 17.0 Showers Mostly cloudy 25 - - - -
31/08:45pm 6.7 NNW 20 35 983.0 - 17.0 - Partly cloudy 10 - - - -
31/08:30pm 6.4 NNW 16 21 982.7 - 17.0 - Mostly clear 10 - - - -
31/08:00pm 6.5 NNW 16 26 982.3 - 16.8 - Mostly clear 10 - - - -
31/07:48pm 6.9 NNW 16 28 982.9 - 16.0 Showers Mostly clear 10 - - - -
31/07:30pm 6.9 NNW 18 23 982.6 - 15.8 - Mostly clear 10 - - - -
31/07:00pm 7.4 NW 30 42 981.9 - 15.8 - Partly cloudy 10 - - - -
31/06:49pm 8.4 NNW 17 31 982.1 - 15.8 Showers Partly cloudy 10 - - - -
31/06:30pm 8.5 NNW 15 20 981.6 - 15.8 - Mostly clear 10 - - - -
31/06:04pm 8.5 NNW 15 27 981.6 - 15.8 - Mostly clear 10 - - - -
31/06:00pm 8.1 NNW 11 17 981.6 F 15.8 Distant precip. Mostly cloudy 25 - - - -
31/05:30pm 7.5 N 7 9 981.4 - 15.8 - Partly cloudy 10 - - - -
31/05:00pm 7.0 N 7 10 980.8 - 15.8 - Mostly clear 10 - - - -
31/04:30pm 7.1 N 8 13 981.9 - 15.8 - Mostly clear 10 - - - -
31/04:00pm 6.9 N 9 13 982.0 - 15.8 - Mostly clear 10 - - - -
31/03:30pm 6.8 N 5 7 981.4 - 15.8 - Mostly clear 10 - - - -
31/03:00pm 6.6 S 5 6 981.5 F 15.8 Drizzle Mostly cloudy 20 - - - -
31/02:30pm 6.2 SSW 4 6 983.1 - 15.4 Rain Mostly clear 10 - - - -
31/02:00pm 6.8 SW 6 8 982.5 - 15.0 - Mostly clear 7 - - - -
31/01:30pm 7.1 SW 6 8 982.4 - 13.8 Rain Mostly clear 6 - - - -
31/01:00pm 7.2 S 5 6 982.5 - 11.0 - Mostly clear 5 - - - -
31/12:30pm 7.3 SE 4 6 982.7 - 8.2 Rain Mostly clear 5 - - - -
31/12:00pm 7.3 S 5 6 983.5 F 6.6 Rain Cloudy 6 - - - -
31/11:30am 7.4 ENE 1 4 984.4 - 5.2 Rain Mostly clear 5 - - - -
31/11:00am 7.4 NE 5 7 985.0 - 4.4 - Mostly clear 5 - - - -
31/10:30am 7.4 WSW 2 4 986.2 - 2.4 Rain Mostly clear 6 - - - -
31/10:00am 7.6 NNW 5 5 986.8 - 1.0 - Mostly clear 6 - - - -
31/09:53am 7.6 NNW 5 6 986.8 - 0.8 Rain Mostly clear 5 - - - -
31/09:30am 7.6 NNE 5 6 986.7 - 0.4 Rain Mostly clear 10 - - - -
31/09:00am 7.7 N 4 5 987.0 F 10.2 Rain Cloudy 15 - - - -
31/08:30am 7.5 N 3 5 988.8 - 10.0 Rain Mostly clear 10 - - - -
31/08:00am 7.6 N 5 6 989.1 - 9.8 - Mostly clear 10 - - - -
31/07:30am 7.4 NNE 7 9 989.0 - 9.8 Rain Mostly clear 9 - - - -
31/07:00am 7.2 NNE 7 9 989.8 - 9.0 - Mostly clear 8 - - - -
31/06:30am 7.4 W 5 8 989.9 - 8.0 Showers Partly cloudy 10 - - - -
31/06:00am 7.4 SE 4 5 989.7 R 7.8 Fine Mostly cloudy 25 - - - -
31/05:30am 7.8 S 9 13 989.9 - 7.8 - Mostly clear 10 - - - -
31/05:00am 8.4 SSW 13 18 990.3 - 6.8 - Mostly clear 6 - - - -
31/04:41am 9.7 SSW 12 19 989.7 - 5.0 Showers Partly cloudy 6 - - - -
31/04:30am 10.4 WSW 11 15 989.2 - 3.4 Showers Partly cloudy 10 - - - -
31/04:00am 11.3 WNW 19 30 987.9 - 2.0 - Mostly clear 10 - - - -
31/03:30am 10.9 NNW 7 9 988.6 - 0.8 - Partly cloudy 10 - - - -
31/03:00am 11.9 W 12 18 989.0 R 0.8 Recent precip. Mostly cloudy 25 - - - -
31/02:30am 13.1 NW 16 27 989.1 - 0.4 Showers Mostly cloudy 10 - - - -
31/02:18am 13.8 NNW 17 29 988.3 - 0.2 Showers Partly cloudy 10 - - - -
31/02:00am 13.7 NNW 20 27 988.2 - 0.2 - Partly cloudy 10 - - - -
31/01:30am 13.9 NNW 17 22 987.8 - 0.2 - Partly cloudy 10 - - - -
31/01:08am 13.4 NNW 18 28 988.0 - 0.2 - Mostly clear 10 - - - -
31/01:00am 13.6 NW 20 26 988.0 - 0.2 - Mostly clear 10 - - - -
31/12:41am 13.4 NNW 20 30 988.1 - 0.2 - Mostly clear 10 - - - -
31/12:30am 13.6 NNW 19 27 987.9 - 0.2 - Mostly clear 10 - - - -
31/12:00am 13.6 NW 24 35 988.7 F 0.2 Fine Mostly clear 10 - - - -
 
Date/Time
EST
Temp

°C
Wind Pressure Rain
since 9am
mm
Weather Cloud Vis
km
Sea
Height
m
Swell
Dir
 
Speed
knots
Gust
knots
hPa Trend Height
m
Period
s
Dir
30/11:43pm 13.6 NNW 20 30 989.2 - 0.2 - Mostly clear 10 - - - -
30/11:30pm 12.9 NNW 17 23 989.3 - 0.2 - Mostly clear 10 - - - -
30/11:00pm 13.2 NW 21 27 989.2 - 0.2 - Mostly clear 10 - - - -
30/10:58pm 13.3 NW 21 27 989.2 - 0.2 - Mostly clear 10 - - - -
30/10:30pm 14.6 NW 31 42 989.2 - 0.2 - Mostly clear 10 - - - -
30/10:08pm 14.5 NW 26 39 989.0 - 0.2 - Mostly clear 10 - - - -
30/10:00pm 13.9 NNW 21 28 989.9 - 0.2 - Mostly clear 10 - - - -
30/09:30pm 14.0 NW 25 41 989.5 - 0.2 - Mostly clear 10 - - - -
30/09:11pm 12.8 NW 17 31 990.0 - 0.2 - Partly cloudy 10 - - - -
30/09:00pm 12.5 NNW 13 18 990.3 F 0.2 Fine Partly cloudy 35 - - - -
30/08:30pm 11.7 NNW 10 16 991.0 - 0.2 - Partly cloudy 10 - - - -
30/08:00pm 12.1 NNW 17 23 991.5 - 0.2 - Partly cloudy 10 - - - -
30/07:30pm 11.8 NW 14 20 991.8 - 0.2 - Mostly clear 10 - - - -
30/07:00pm 11.9 NNW 13 18 992.3 - 0.2 - Mostly clear 10 - - - -
30/06:30pm 12.8 NW 20 27 992.5 - 0.2 - Mostly clear 10 - - - -
30/06:16pm 12.8 NW 16 29 992.6 - 0.2 - Mostly clear 10 - - - -
30/06:00pm 12.1 NW 13 18 993.0 F 0.2 Recent precip. Mostly cloudy 25 - - - -
30/05:30pm 11.9 NW 17 23 993.0 - 0.2 Showers Mostly clear 10 - - - -
30/05:00pm 12.1 NW 14 19 992.8 - 0.2 - Mostly clear 10 - - - -
30/04:30pm 12.3 NW 18 23 992.3 - 0.2 - Mostly clear 10 - - - -
30/04:03pm 12.6 NW 15 25 992.7 - 0.2 Showers Mostly clear 10 - - - -
30/04:00pm 12.6 NW 13 25 992.9 - 0.2 - Mostly clear 10 - - - -
30/03:30pm 12.3 NW 12 18 992.3 - 0.2 - Mostly clear 10 - - - -
30/03:00pm 12.0 NW 17 27 993.0 S 0.2 Showers Mostly cloudy 25 - - - -
30/02:35pm 11.9 NW 17 27 993.0 - 0.2 Showers Mostly clear 10 - - - -
30/02:30pm 11.8 NW 16 24 993.0 - 0.2 Showers Mostly clear 10 - - - -
30/02:00pm 11.7 NW 15 27 993.9 - 0.2 - Mostly clear 10 - - - -
30/01:41pm 11.7 NW 21 31 994.0 - 0.2 Showers Partly cloudy 10 - - - -
30/01:30pm 12.0 NW 23 30 994.1 - 0.0 Showers Partly cloudy 8 - - - -
30/01:13pm 12.1 NW 24 34 994.0 - 0.0 Showers Mostly clear 8 - - - -
30/01:00pm 12.8 NW 26 32 994.1 - 0.0 - Mostly clear 9 - - - -
30/12:30pm 13.2 NW 27 38 993.8 - 0.0 - Mostly clear 10 - - - -
30/12:11pm 13.0 NW 25 36 993.7 - 0.0 - Mostly clear 10 - - - -
30/12:00pm 12.7 NW 26 33 993.9 S 0.0 Distant precip. Mostly cloudy 30 - - - -
30/11:30am 12.3 NW 31 41 993.8 - 0.0 - Mostly clear 10 - - - -
30/11:00am 13.3 NW 32 42 993.9 - 0.0 - Mostly clear 10 - - - -
30/10:30am 13.3 NW 31 41 994.3 - 0.0 Showers Mostly clear 10 - - - -
30/10:00am 12.5 NW 29 39 994.5 - 0.0 - Mostly clear 10 - - - -
30/09:35am 12.2 NW 26 36 994.6 - 0.0 Showers Mostly clear 10 - - - -
30/09:30am 12.1 NW 28 36 994.5 - 0.0 - Mostly clear 10 - - - -
30/09:14am 11.7 NW 21 31 994.5 - 0.0 - Mostly clear 10 - - - -
30/09:00am 11.1 NW 21 28 994.7 F 8.6 Haze Mostly cloudy 25 - - - -
30/08:37am 10.4 NW 25 35 995.0 - 8.6 - Mostly clear 10 - - - -
30/08:30am 10.4 NW 27 35 995.2 - 8.6 - Mostly clear 10 - - - -
30/08:21am 10.3 NW 19 30 995.3 - 8.6 - Mostly clear 10 - - - -
30/08:00am 9.7 NW 22 30 995.3 - 8.6 - Mostly clear 10 - - - -
30/07:51am 9.7 NW 17 28 995.4 - 8.6 - Mostly clear 10 - - - -
30/07:30am 9.0 NW 15 21 995.5 - 8.6 - Mostly clear 10 - - - -
30/07:00am 9.4 NW 16 22 995.2 - 8.6 - Mostly clear 10 - - - -
30/06:30am 8.9 NNW 16 21 995.9 - 8.6 - Mostly clear 10 - - - -
30/06:00am 8.4 NNW 14 20 996.4 R 8.6 Fine Mostly clear 30 - - - -
30/05:30am 8.5 NW 16 21 996.4 - 8.6 - Mostly clear 10 - - - -
30/05:00am 9.8 NW 16 24 996.4 - 8.6 - Mostly clear 10 - - - -
30/04:30am 9.5 WNW 18 29 996.2 - 8.6 - Mostly clear 10 - - - -
30/04:00am 10.5 WNW 20 30 995.7 - 8.6 - Mostly clear 10 - - - -
30/03:32am 9.3 WNW 19 32 995.3 - 8.6 - Mostly clear 10 - - - -
30/03:30am 9.4 WNW 19 28 995.2 - 8.6 - Mostly clear 10 - - - -
30/03:00am 9.0 WNW 17 27 994.4 R 8.6 Distant precip. Mostly cloudy 15 - - - -
30/02:30am 9.1 WNW 15 25 994.0 - 8.6 - Mostly clear 10 - - - -
30/02:08am 8.6 NNW 15 26 993.4 - 8.6 - Mostly clear 10 - - - -
30/02:00am 8.5 NNW 12 16 993.2 - 8.6 - Mostly clear 10 - - - -
30/01:30am 9.9 WNW 22 37 991.9 - 8.6 Showers Mostly clear 6 - - - -
30/01:00am 8.4 WNW 24 34 993.1 - 8.4 - Mostly clear 6 - - - -
30/12:33am 8.3 W 20 32 991.9 - 7.8 Showers Mostly clear 6 - - - -
30/12:30am 8.3 W 20 28 992.0 - 7.6 Showers Mostly clear 6 - - - -
30/12:08am 9.6 WNW 18 29 991.3 - 7.0 Showers Mostly clear 6 - - - -
30/12:00am 9.9 WNW 18 26 991.2 R 7.0 Showers Partly cloudy 6 - - - -
 
Date/Time
EST
Temp

°C
Wind Pressure Rain
since 9am
mm
Weather Cloud Vis
km
Sea
Height
m
Swell
Dir
 
Speed
knots
Gust
knots
hPa Trend Height
m
Period
s
Dir
29/11:30pm 8.4 WNW 23 34 991.0 - 7.0 Showers Mostly clear 5 - - - -
29/11:18pm 9.5 WNW 23 45 990.5 - 6.2 Showers Mostly clear 5 - - - -
29/11:03pm 9.5 NNW 17 30 989.6 - 6.0 Showers Mostly clear 5 - - - -
29/11:00pm 9.6 NNW 16 24 989.8 - 5.8 - Mostly clear 5 - - - -
29/10:42pm 10.4 NW 19 31 988.9 - 5.8 - Mostly clear 10 - - - -
29/10:30pm 11.0 WNW 21 25 989.4 - 5.8 - Mostly clear 10 - - - -
29/10:10pm 11.6 W 39 56 989.3 - 5.8 Showers Mostly clear 8 - - - -
29/10:08pm 11.8 W 22 44 988.7 - 5.8 Showers Mostly clear 8 - - - -
29/10:00pm 12.4 WNW 22 29 988.7 - 5.8 - Mostly clear 10 - - - -
29/09:30pm 11.6 W 23 35 988.5 - 5.8 Showers Mostly clear 10 - - - -
29/09:11pm 11.1 WNW 20 30 988.5 - 5.8 Showers Mostly clear 10 - - - -
29/09:00pm 10.1 WNW 20 27 988.4 R 5.8 Recent precip. Partly cloudy 25 - - - -
29/08:30pm 9.4 WNW 29 40 988.1 - 5.8 Showers Mostly clear 6 - - - -
29/08:28pm 9.3 WNW 30 40 988.0 - 5.4 - Partly cloudy 5 - - - -
29/08:26pm 9.4 WNW 31 40 988.2 - 5.4 - Partly cloudy 6 - - - -
29/08:22pm 10.8 NW 31 40 989.1 - 5.2 Showers Mostly clear 6 - - - -
29/08:04pm 10.5 NNW 16 27 987.0 - 5.2 Showers Mostly cloudy 9 - - - -
29/08:00pm 10.6 NW 14 19 987.0 - 5.2 - Mostly cloudy 9 - - - -
29/07:51pm 10.6 N 15 19 986.6 - 5.2 - Mostly cloudy 10 - - - -
29/07:30pm 11.1 NW 29 45 986.7 - 5.0 Showers Mostly cloudy 8 - - - -
29/07:25pm 10.9 NW 26 45 986.4 - 5.0 Showers Mostly cloudy 8 - - - -
29/07:00pm 10.7 NNW 20 35 986.4 - 5.0 - Partly cloudy 10 - - - -
29/06:30pm 11.6 NW 24 36 986.6 - 5.0 - Partly cloudy 10 - - - -
29/06:19pm 11.8 WNW 20 30 986.1 - 5.0 - Mostly clear 10 - - - -
29/06:17pm 11.7 WNW 21 30 985.9 - 5.0 - Mostly clear 10 - - - -
29/06:04pm 10.6 WSW 23 26 986.8 - 4.8 Showers Mostly clear 10 - - - -
29/06:02pm 11.4 W 15 28 986.9 - 4.2 Showers Mostly clear 7 - - - -
29/06:00pm 11.4 W 14 19 986.8 F 3.8 Showers Mostly cloudy 7 - - - -
29/05:59pm 11.4 W 13 18 986.4 - 3.8 Showers Mostly clear 7 - - - -
29/05:30pm 10.0 N 8 11 984.3 - 3.6 - Mostly clear 10 - - - -
29/05:21pm 10.4 NNW 7 9 984.8 - 3.6 - Mostly clear 10 - - - -
29/05:00pm 11.0 NNW 11 19 985.6 - 2.8 - Mostly clear 5 - - - -
29/04:30pm 10.9 NNW 16 26 985.0 - 2.6 - Mostly clear 10 - - - -
29/04:18pm 11.2 NNW 15 25 985.0 - 2.0 Showers Mostly clear 5 - - - -
29/04:00pm 11.8 NNW 13 20 985.2 - 1.0 - Mostly clear 5 - - - -
29/03:30pm 11.4 NW 15 20 985.9 - 1.0 Showers Mostly clear 10 - - - -
29/03:00pm 11.5 NW 18 23 986.7 F 0.8 Distant precip. Partly cloudy 25 - - - -
29/02:35pm 11.5 NNW 22 33 987.0 - 0.8 Showers Mostly clear 10 - - - -
29/02:30pm 11.6 NNW 22 31 986.8 - 0.8 Showers Mostly clear 10 - - - -
29/02:00pm 12.1 NNW 19 27 987.3 - 0.8 - Mostly clear 10 - - - -
29/01:46pm 11.9 NNW 20 30 987.3 - 0.8 - Mostly clear 10 - - - -
29/01:30pm 11.5 NNW 21 30 987.5 - 0.8 - Mostly clear 10 - - - -
29/01:00pm 10.2 NNW 20 32 989.3 - 0.8 - Mostly clear 10 - - - -
29/12:30pm 10.0 NW 18 28 990.5 - 0.8 Rain Mostly clear 10 - - - -
29/12:00pm 11.0 NW 19 28 990.3 R 0.4 Showers Mostly cloudy 15 - - - -
29/11:31am 10.8 NW 20 30 990.2 - 0.4 Showers Partly cloudy 10 - - - -
29/11:30am 10.9 NW 21 30 990.2 - 0.4 Showers Partly cloudy 10 - - - -
29/11:05am 11.8 NW 27 44 990.3 - 0.0 Showers Partly cloudy 7 - - - -
29/11:00am 12.5 NW 27 35 990.2 - 0.0 - Partly cloudy 10 - - - -
29/10:34am 12.6 NNW 16 26 990.2 - 0.0 - Mostly clear 10 - - - -
29/10:30am 12.7 NNW 15 21 989.9 - 0.0 - Mostly clear 10 - - - -
29/10:07am 12.5 NNW 15 28 990.1 - 0.0 Showers Mostly clear 10 - - - -
29/10:00am 12.6 NW 13 20 990.5 - 0.0 - Mostly clear 10 - - - -
29/09:30am 11.8 NNW 6 9 990.4 - 0.0 - Mostly clear 10 - - - -
29/09:00am 11.4 N 9 16 990.6 F 4.8 Showers Mostly cloudy 30 - - - -
29/08:30am 10.6 N 14 18 990.6 - 4.0 Showers Mostly clear 6 - - - -
29/08:20am 11.0 N 15 21 990.9 - 3.2 Showers Mostly clear 6 - - - -
29/08:00am 10.2 N 7 11 991.4 - 1.2 - Mostly clear 8 - - - -
29/07:30am 10.2 NNW 6 8 991.7 - 1.0 Showers Mostly clear 10 - - - -
29/07:00am 11.5 NW 14 18 992.5 - 0.4 - Mostly clear 10 - - - -
29/06:52am 12.4 NNW 16 23 992.3 - 0.2 Rain Mostly clear 7 - - - -
29/06:42am 12.0 N 17 27 991.4 - 0.2 - Mostly clear 10 - - - -
29/06:30am 11.9 N 19 27 990.8 - 0.2 Rain Mostly clear 10 - - - -
29/06:15am 12.3 N 20 30 990.9 - 0.2 - Mostly clear 10 - - - -
29/06:00am 12.5 N 21 30 991.3 F 0.2 Fine Mostly cloudy 40 - - - -
29/05:38am 12.2 N 16 26 991.9 - 0.2 - Mostly clear 10 - - - -
29/05:30am 12.1 N 16 23 992.0 - 0.2 - Mostly clear 10 - - - -
29/05:17am 11.9 N 15 26 992.3 - 0.2 - Mostly clear 10 - - - -
29/05:00am 11.4 N 8 16 993.1 - 0.2 - Mostly clear 10 - - - -
29/04:30am 10.9 N 8 14 993.9 - 0.2 - Mostly clear 10 - - - -
29/04:00am 10.3 NNW 5 10 994.9 - 0.2 - Mostly clear 10 - - - -
29/03:00am 11.3 N 11 16 996.0 F 0.2 Fine Mostly clear 40 - - - -
29/02:30am 11.0 N 12 17 996.5 - 0.2 - Partly cloudy 10 - - - -
29/02:00am 11.2 N 13 17 997.0 - 0.2 - Mostly clear 10 - - - -
29/01:30am 9.3 N 13 19 997.4 - 0.2 - Partly cloudy 10 - - - -
29/01:00am 9.7 N 7 10 998.1 - 0.2 - Partly cloudy 10 - - - -
29/12:30am 10.8 NNW 9 13 998.9 - 0.2 - Partly cloudy 10 - - - -
29/12:00am 10.5 NNW 9 17 999.2 F 0.2 Fine Partly cloudy 40 - - - -

Other Formats:

Comma delimited format used in spreadsheet applications
http://www.bom.gov.au/fwo/IDT60701/IDT60701.94975.axf

JavaScript Object Notation format (JSON) in row-major order
http://www.bom.gov.au/fwo/IDT60701/IDT60701.94975.json